Main page
METAR-TAF:

METAR-TAF

Airports :

Luton Airport

Luton, England

latitude: 51-52N, longitude: 000-22W, elevation: 160 m

Current weather observation

The report was made 27 minutes ago, at 21:50 UTC
Wind 10 kt from the Northwest
Temperature 1°C
Humidity 93%
Pressure 996 hPa
Visibility 10 km or more
Overcast at a height of 300 ft

METAR: EGGW 222150Z AUTO 31010KT 9999 OVC003 01/00 Q0996

Time: 22:17 (22:17 UTC)

Forecast

The report was made 1 hour and 18 minutes ago, at 20:59 UTC
Forecast valid from 22 at 20 UTC to 23 at 18 UTC
Wind 9 kt from the West
Visibility 10 km or more
Scattered clouds at a height of 2200 ft
Becoming
from 22 at 20 UTC to 22 at 24 UTC
Wind 10 kt from the Northwest
Temporary
from 22 at 20 UTC to 23 at 09 UTC
Visibility: 4000 m
Broken clouds at a height of 400 ft
mist

TAF: EGGW 222059Z 2220/2318 26009KT 9999 SCT022 BECMG 2220/2224 32010KT TEMPO 2220/2309 4000 BR BKN004

Weather observations and forecasts of more than 4000 airports (METAR and TAF reports).

The available stations are represented by yellow and red dots on the map.

Hover mouse over dot to see the name of the station.

Then click to see weather observations and forecasts.

To change the map : click on the green buttons with a black cross to zoom in, on the green button with a dash to zoom out, or on the green arrows for adjacent maps.


METAR-TAF: